sensor_id;sensor_type;location;lat;lon;timestamp;P1;durP1;ratioP1;P2;durP2;ratioP2
21727;SDS011;11026;50.560;17.852;2023-02-26T00:01:41;17.10;;;10.20;;
21727;SDS011;11026;50.560;17.852;2023-02-26T00:04:08;17.85;;;9.70;;
21727;SDS011;11026;50.560;17.852;2023-02-26T00:06:37;11.57;;;8.57;;
21727;SDS011;11026;50.560;17.852;2023-02-26T00:09:20;11.13;;;8.30;;
21727;SDS011;11026;50.560;17.852;2023-02-26T00:11:48;15.52;;;9.70;;
21727;SDS011;11026;50.560;17.852;2023-02-26T00:14:15;14.50;;;9.27;;
21727;SDS011;11026;50.560;17.852;2023-02-26T00:16:44;10.07;;;7.47;;
21727;SDS011;11026;50.560;17.852;2023-02-26T00:19:18;12.98;;;8.48;;
21727;SDS011;11026;50.560;17.852;2023-02-26T00:21:46;11.52;;;7.28;;
21727;SDS011;11026;50.560;17.852;2023-02-26T00:24:15;10.70;;;7.32;;
21727;SDS011;11026;50.560;17.852;2023-02-26T00:26:43;9.43;;;7.28;;
21727;SDS011;11026;50.560;17.852;2023-02-26T00:29:10;12.20;;;7.40;;
21727;SDS011;11026;50.560;17.852;2023-02-26T00:31:38;11.88;;;7.00;;
21727;SDS011;11026;50.560;17.852;2023-02-26T00:34:09;15.68;;;8.85;;
21727;SDS011;11026;50.560;17.852;2023-02-26T00:42:08;17.00;;;8.60;;
21727;SDS011;11026;50.560;17.852;2023-02-26T00:44:35;15.38;;;8.75;;
21727;SDS011;11026;50.560;17.852;2023-02-26T00:47:09;18.08;;;9.95;;
21727;SDS011;11026;50.560;17.852;2023-02-26T00:55:26;16.48;;;9.10;;
21727;SDS011;11026;50.560;17.852;2023-02-26T00:57:56;19.80;;;9.75;;
21727;SDS011;11026;50.560;17.852;2023-02-26T01:00:25;14.50;;;8.10;;
21727;SDS011;11026;50.560;17.852;2023-02-26T01:02:54;18.30;;;8.98;;
21727;SDS011;11026;50.560;17.852;2023-02-26T01:05:23;12.05;;;7.30;;
21727;SDS011;11026;50.560;17.852;2023-02-26T01:10:25;10.48;;;6.68;;
21727;SDS011;11026;50.560;17.852;2023-02-26T01:12:55;11.85;;;6.93;;
21727;SDS011;11026;50.560;17.852;2023-02-26T01:15:23;10.82;;;6.78;;
21727;SDS011;11026;50.560;17.852;2023-02-26T01:17:53;11.30;;;6.47;;
21727;SDS011;11026;50.560;17.852;2023-02-26T01:20:30;8.88;;;6.47;;
21727;SDS011;11026;50.560;17.852;2023-02-26T01:23:08;10.57;;;7.30;;
21727;SDS011;11026;50.560;17.852;2023-02-26T01:25:43;31.48;;;15.93;;
21727;SDS011;11026;50.560;17.852;2023-02-26T01:28:16;14.05;;;8.00;;
21727;SDS011;11026;50.560;17.852;2023-02-26T01:30:43;10.73;;;7.30;;
21727;SDS011;11026;50.560;17.852;2023-02-26T01:33:14;16.17;;;7.82;;
21727;SDS011;11026;50.560;17.852;2023-02-26T01:35:49;11.10;;;7.07;;
21727;SDS011;11026;50.560;17.852;2023-02-26T01:41:45;10.20;;;6.97;;
21727;SDS011;11026;50.560;17.852;2023-02-26T01:47:25;11.07;;;7.05;;
21727;SDS011;11026;50.560;17.852;2023-02-26T01:50:12;14.88;;;8.73;;
21727;SDS011;11026;50.560;17.852;2023-02-26T01:55:23;13.25;;;7.68;;
21727;SDS011;11026;50.560;17.852;2023-02-26T01:57:53;11.45;;;7.55;;
21727;SDS011;11026;50.560;17.852;2023-02-26T02:00:31;13.40;;;8.05;;
21727;SDS011;11026;50.560;17.852;2023-02-26T02:02:59;13.68;;;10.18;;
21727;SDS011;11026;50.560;17.852;2023-02-26T02:05:33;14.75;;;8.77;;
21727;SDS011;11026;50.560;17.852;2023-02-26T02:08:09;14.98;;;9.13;;
21727;SDS011;11026;50.560;17.852;2023-02-26T02:10:43;10.52;;;7.82;;
21727;SDS011;11026;50.560;17.852;2023-02-26T02:15:50;10.77;;;7.05;;
21727;SDS011;11026;50.560;17.852;2023-02-26T02:21:28;12.55;;;7.30;;
21727;SDS011;11026;50.560;17.852;2023-02-26T02:31:55;10.98;;;7.18;;
21727;SDS011;11026;50.560;17.852;2023-02-26T02:34:26;12.25;;;7.07;;
21727;SDS011;11026;50.560;17.852;2023-02-26T02:37:01;10.27;;;6.60;;
21727;SDS011;11026;50.560;17.852;2023-02-26T02:40:01;10.73;;;6.78;;
21727;SDS011;11026;50.560;17.852;2023-02-26T02:50:59;9.00;;;6.57;;
21727;SDS011;11026;50.560;17.852;2023-02-26T02:53:38;9.35;;;5.88;;
21727;SDS011;11026;50.560;17.852;2023-02-26T02:58:50;11.10;;;6.20;;
21727;SDS011;11026;50.560;17.852;2023-02-26T03:01:22;10.07;;;6.20;;
21727;SDS011;11026;50.560;17.852;2023-02-26T03:04:01;12.05;;;6.22;;
21727;SDS011;11026;50.560;17.852;2023-02-26T03:06:33;9.60;;;6.70;;
21727;SDS011;11026;50.560;17.852;2023-02-26T03:09:02;10.15;;;5.82;;
21727;SDS011;11026;50.560;17.852;2023-02-26T03:11:37;9.90;;;6.07;;
21727;SDS011;11026;50.560;17.852;2023-02-26T03:14:06;9.00;;;6.47;;
21727;SDS011;11026;50.560;17.852;2023-02-26T03:19:48;9.43;;;6.63;;
21727;SDS011;11026;50.560;17.852;2023-02-26T03:33:32;9.88;;;6.53;;
21727;SDS011;11026;50.560;17.852;2023-02-26T03:36:21;9.80;;;6.40;;
21727;SDS011;11026;50.560;17.852;2023-02-26T03:39:42;8.52;;;5.90;;
21727;SDS011;11026;50.560;17.852;2023-02-26T03:41:55;9.10;;;6.00;;
21727;SDS011;11026;50.560;17.852;2023-02-26T03:44:32;8.10;;;5.40;;
21727;SDS011;11026;50.560;17.852;2023-02-26T03:47:07;7.78;;;5.40;;
21727;SDS011;11026;50.560;17.852;2023-02-26T03:49:45;8.82;;;5.30;;
21727;SDS011;11026;50.560;17.852;2023-02-26T03:52:27;8.68;;;5.72;;
21727;SDS011;11026;50.560;17.852;2023-02-26T03:55:00;9.25;;;5.75;;
21727;SDS011;11026;50.560;17.852;2023-02-26T03:57:36;7.38;;;5.00;;
21727;SDS011;11026;50.560;17.852;2023-02-26T04:00:05;8.77;;;5.68;;
21727;SDS011;11026;50.560;17.852;2023-02-26T04:02:39;7.70;;;5.17;;
21727;SDS011;11026;50.560;17.852;2023-02-26T04:05:16;8.02;;;5.40;;
21727;SDS011;11026;50.560;17.852;2023-02-26T04:07:45;8.15;;;5.65;;
21727;SDS011;11026;50.560;17.852;2023-02-26T04:10:15;9.27;;;5.57;;
21727;SDS011;11026;50.560;17.852;2023-02-26T04:12:45;8.50;;;6.00;;
21727;SDS011;11026;50.560;17.852;2023-02-26T04:15:12;11.32;;;6.38;;
21727;SDS011;11026;50.560;17.852;2023-02-26T04:17:41;8.35;;;6.60;;
21727;SDS011;11026;50.560;17.852;2023-02-26T04:20:09;10.23;;;5.75;;
21727;SDS011;11026;50.560;17.852;2023-02-26T04:22:37;8.88;;;6.03;;
21727;SDS011;11026;50.560;17.852;2023-02-26T04:25:05;7.65;;;6.10;;
21727;SDS011;11026;50.560;17.852;2023-02-26T04:27:32;10.52;;;6.57;;
21727;SDS011;11026;50.560;17.852;2023-02-26T04:30:00;10.25;;;7.25;;
21727;SDS011;11026;50.560;17.852;2023-02-26T04:32:29;10.48;;;7.20;;
21727;SDS011;11026;50.560;17.852;2023-02-26T04:34:58;12.18;;;7.40;;
21727;SDS011;11026;50.560;17.852;2023-02-26T04:37:25;10.82;;;7.63;;
21727;SDS011;11026;50.560;17.852;2023-02-26T04:39:53;73.97;;;33.00;;
21727;SDS011;11026;50.560;17.852;2023-02-26T04:42:20;78.50;;;38.90;;
21727;SDS011;11026;50.560;17.852;2023-02-26T04:45:00;24.15;;;12.95;;
21727;SDS011;11026;50.560;17.852;2023-02-26T04:47:27;54.75;;;24.55;;
21727;SDS011;11026;50.560;17.852;2023-02-26T04:49:55;21.98;;;11.57;;
21727;SDS011;11026;50.560;17.852;2023-02-26T04:52:22;13.88;;;8.93;;
21727;SDS011;11026;50.560;17.852;2023-02-26T04:54:49;17.98;;;10.75;;
21727;SDS011;11026;50.560;17.852;2023-02-26T04:57:17;18.55;;;10.65;;
21727;SDS011;11026;50.560;17.852;2023-02-26T04:59:45;13.93;;;9.45;;
21727;SDS011;11026;50.560;17.852;2023-02-26T05:02:13;16.73;;;9.57;;
21727;SDS011;11026;50.560;17.852;2023-02-26T05:04:42;12.20;;;8.88;;
21727;SDS011;11026;50.560;17.852;2023-02-26T05:07:09;19.33;;;11.82;;
21727;SDS011;11026;50.560;17.852;2023-02-26T05:09:37;15.30;;;10.30;;
21727;SDS011;11026;50.560;17.852;2023-02-26T05:12:05;24.27;;;14.15;;
21727;SDS011;11026;50.560;17.852;2023-02-26T05:14:32;22.63;;;13.77;;
21727;SDS011;11026;50.560;17.852;2023-02-26T05:16:59;19.35;;;11.73;;
21727;SDS011;11026;50.560;17.852;2023-02-26T05:19:27;14.38;;;9.38;;
21727;SDS011;11026;50.560;17.852;2023-02-26T05:21:55;12.75;;;9.25;;
21727;SDS011;11026;50.560;17.852;2023-02-26T05:24:23;12.82;;;10.07;;
21727;SDS011;11026;50.560;17.852;2023-02-26T05:26:50;10.20;;;8.43;;
21727;SDS011;11026;50.560;17.852;2023-02-26T05:29:18;10.75;;;8.68;;
21727;SDS011;11026;50.560;17.852;2023-02-26T05:31:45;12.05;;;9.77;;
21727;SDS011;11026;50.560;17.852;2023-02-26T05:34:13;10.02;;;7.85;;
21727;SDS011;11026;50.560;17.852;2023-02-26T05:36:41;9.00;;;7.90;;
21727;SDS011;11026;50.560;17.852;2023-02-26T05:39:08;11.93;;;9.60;;
21727;SDS011;11026;50.560;17.852;2023-02-26T05:41:36;10.15;;;8.70;;
21727;SDS011;11026;50.560;17.852;2023-02-26T05:44:03;10.85;;;8.40;;
21727;SDS011;11026;50.560;17.852;2023-02-26T05:46:31;11.32;;;9.00;;
21727;SDS011;11026;50.560;17.852;2023-02-26T05:48:58;9.60;;;7.90;;
21727;SDS011;11026;50.560;17.852;2023-02-26T05:51:26;10.88;;;8.80;;
21727;SDS011;11026;50.560;17.852;2023-02-26T05:53:54;10.55;;;9.43;;
21727;SDS011;11026;50.560;17.852;2023-02-26T05:56:21;11.50;;;8.95;;
21727;SDS011;11026;50.560;17.852;2023-02-26T05:58:56;11.95;;;7.45;;
21727;SDS011;11026;50.560;17.852;2023-02-26T06:01:24;9.73;;;7.50;;
21727;SDS011;11026;50.560;17.852;2023-02-26T06:03:51;9.75;;;7.72;;
21727;SDS011;11026;50.560;17.852;2023-02-26T06:06:21;7.32;;;6.63;;
21727;SDS011;11026;50.560;17.852;2023-02-26T06:08:50;9.40;;;7.10;;
21727;SDS011;11026;50.560;17.852;2023-02-26T06:11:17;9.23;;;6.25;;
21727;SDS011;11026;50.560;17.852;2023-02-26T06:13:44;10.02;;;6.80;;
21727;SDS011;11026;50.560;17.852;2023-02-26T06:16:12;8.10;;;6.40;;
21727;SDS011;11026;50.560;17.852;2023-02-26T06:18:45;7.65;;;6.78;;
21727;SDS011;11026;50.560;17.852;2023-02-26T06:21:13;7.05;;;5.80;;
21727;SDS011;11026;50.560;17.852;2023-02-26T06:23:41;8.88;;;6.07;;
21727;SDS011;11026;50.560;17.852;2023-02-26T06:26:11;9.00;;;6.45;;
21727;SDS011;11026;50.560;17.852;2023-02-26T06:28:40;8.32;;;6.05;;
21727;SDS011;11026;50.560;17.852;2023-02-26T06:31:09;7.45;;;5.90;;
21727;SDS011;11026;50.560;17.852;2023-02-26T06:33:38;9.82;;;6.30;;
21727;SDS011;11026;50.560;17.852;2023-02-26T06:36:06;11.13;;;6.53;;
21727;SDS011;11026;50.560;17.852;2023-02-26T06:38:34;9.52;;;6.93;;
21727;SDS011;11026;50.560;17.852;2023-02-26T06:41:07;7.80;;;6.85;;
21727;SDS011;11026;50.560;17.852;2023-02-26T06:43:35;8.68;;;6.22;;
21727;SDS011;11026;50.560;17.852;2023-02-26T06:46:02;6.88;;;6.18;;
21727;SDS011;11026;50.560;17.852;2023-02-26T06:48:31;7.15;;;6.05;;
21727;SDS011;11026;50.560;17.852;2023-02-26T06:50:59;6.88;;;6.03;;
21727;SDS011;11026;50.560;17.852;2023-02-26T06:53:26;9.65;;;6.25;;
21727;SDS011;11026;50.560;17.852;2023-02-26T06:55:54;7.38;;;6.03;;
21727;SDS011;11026;50.560;17.852;2023-02-26T06:58:22;8.35;;;6.05;;
21727;SDS011;11026;50.560;17.852;2023-02-26T07:00:50;9.55;;;5.53;;
21727;SDS011;11026;50.560;17.852;2023-02-26T07:03:17;5.90;;;5.22;;
21727;SDS011;11026;50.560;17.852;2023-02-26T07:05:45;7.03;;;5.15;;
21727;SDS011;11026;50.560;17.852;2023-02-26T07:08:12;6.68;;;4.93;;
21727;SDS011;11026;50.560;17.852;2023-02-26T07:10:41;7.28;;;5.10;;
21727;SDS011;11026;50.560;17.852;2023-02-26T07:13:10;9.25;;;5.03;;
21727;SDS011;11026;50.560;17.852;2023-02-26T07:15:39;6.60;;;5.82;;
21727;SDS011;11026;50.560;17.852;2023-02-26T07:18:12;7.28;;;5.40;;
21727;SDS011;11026;50.560;17.852;2023-02-26T07:20:41;8.13;;;6.07;;
21727;SDS011;11026;50.560;17.852;2023-02-26T07:23:10;9.02;;;8.13;;
21727;SDS011;11026;50.560;17.852;2023-02-26T07:25:40;12.77;;;8.35;;
21727;SDS011;11026;50.560;17.852;2023-02-26T07:28:08;9.02;;;7.75;;
21727;SDS011;11026;50.560;17.852;2023-02-26T07:30:36;14.60;;;8.85;;
21727;SDS011;11026;50.560;17.852;2023-02-26T07:33:03;9.15;;;8.25;;
21727;SDS011;11026;50.560;17.852;2023-02-26T07:35:31;9.20;;;8.30;;
21727;SDS011;11026;50.560;17.852;2023-02-26T07:37:58;13.27;;;9.20;;
21727;SDS011;11026;50.560;17.852;2023-02-26T07:40:27;9.95;;;7.68;;
21727;SDS011;11026;50.560;17.852;2023-02-26T07:42:54;9.35;;;7.43;;
21727;SDS011;11026;50.560;17.852;2023-02-26T07:45:23;15.65;;;12.82;;
21727;SDS011;11026;50.560;17.852;2023-02-26T07:47:52;7.93;;;6.10;;
21727;SDS011;11026;50.560;17.852;2023-02-26T07:50:20;13.65;;;12.25;;
21727;SDS011;11026;50.560;17.852;2023-02-26T07:52:52;12.50;;;11.20;;
21727;SDS011;11026;50.560;17.852;2023-02-26T07:55:20;9.80;;;7.03;;
21727;SDS011;11026;50.560;17.852;2023-02-26T07:57:47;6.93;;;5.78;;
21727;SDS011;11026;50.560;17.852;2023-02-26T08:00:16;7.90;;;6.22;;
21727;SDS011;11026;50.560;17.852;2023-02-26T08:02:44;11.05;;;9.93;;
21727;SDS011;11026;50.560;17.852;2023-02-26T08:05:11;17.30;;;14.52;;
21727;SDS011;11026;50.560;17.852;2023-02-26T08:07:42;28.50;;;22.45;;
21727;SDS011;11026;50.560;17.852;2023-02-26T08:10:11;14.95;;;12.75;;
21727;SDS011;11026;50.560;17.852;2023-02-26T08:12:39;13.18;;;10.52;;
21727;SDS011;11026;50.560;17.852;2023-02-26T08:15:12;12.45;;;6.32;;
21727;SDS011;11026;50.560;17.852;2023-02-26T08:17:41;22.58;;;12.55;;
21727;SDS011;11026;50.560;17.852;2023-02-26T08:20:08;7.68;;;5.35;;
21727;SDS011;11026;50.560;17.852;2023-02-26T08:22:37;8.15;;;7.30;;
21727;SDS011;11026;50.560;17.852;2023-02-26T08:25:07;8.15;;;7.15;;
21727;SDS011;11026;50.560;17.852;2023-02-26T08:27:34;8.13;;;5.95;;
21727;SDS011;11026;50.560;17.852;2023-02-26T08:30:02;16.63;;;7.95;;
21727;SDS011;11026;50.560;17.852;2023-02-26T08:32:31;6.72;;;5.22;;
21727;SDS011;11026;50.560;17.852;2023-02-26T08:34:59;12.00;;;5.78;;
21727;SDS011;11026;50.560;17.852;2023-02-26T08:37:27;8.85;;;6.70;;
21727;SDS011;11026;50.560;17.852;2023-02-26T08:39:55;7.10;;;6.03;;
21727;SDS011;11026;50.560;17.852;2023-02-26T08:42:22;8.77;;;6.97;;
21727;SDS011;11026;50.560;17.852;2023-02-26T08:44:50;12.38;;;9.15;;
21727;SDS011;11026;50.560;17.852;2023-02-26T08:47:17;6.15;;;5.50;;
21727;SDS011;11026;50.560;17.852;2023-02-26T08:49:54;6.32;;;5.45;;
21727;SDS011;11026;50.560;17.852;2023-02-26T08:52:22;8.25;;;6.80;;
21727;SDS011;11026;50.560;17.852;2023-02-26T08:54:49;9.43;;;7.80;;
21727;SDS011;11026;50.560;17.852;2023-02-26T08:57:17;8.95;;;7.03;;
21727;SDS011;11026;50.560;17.852;2023-02-26T08:59:44;10.45;;;5.53;;
21727;SDS011;11026;50.560;17.852;2023-02-26T09:02:13;8.45;;;5.50;;
21727;SDS011;11026;50.560;17.852;2023-02-26T09:04:41;9.02;;;5.47;;
21727;SDS011;11026;50.560;17.852;2023-02-26T09:07:08;7.82;;;5.22;;
21727;SDS011;11026;50.560;17.852;2023-02-26T09:09:35;6.47;;;5.00;;
21727;SDS011;11026;50.560;17.852;2023-02-26T09:12:02;7.65;;;5.57;;
21727;SDS011;11026;50.560;17.852;2023-02-26T09:14:30;8.63;;;5.95;;
21727;SDS011;11026;50.560;17.852;2023-02-26T09:16:57;6.22;;;5.28;;
21727;SDS011;11026;50.560;17.852;2023-02-26T09:19:24;11.07;;;6.45;;
21727;SDS011;11026;50.560;17.852;2023-02-26T09:21:52;5.75;;;4.90;;
21727;SDS011;11026;50.560;17.852;2023-02-26T09:24:19;9.10;;;4.75;;
21727;SDS011;11026;50.560;17.852;2023-02-26T09:26:46;6.03;;;4.63;;
21727;SDS011;11026;50.560;17.852;2023-02-26T09:29:14;7.50;;;5.03;;
21727;SDS011;11026;50.560;17.852;2023-02-26T09:31:41;6.68;;;5.03;;
21727;SDS011;11026;50.560;17.852;2023-02-26T09:34:08;6.03;;;4.97;;
21727;SDS011;11026;50.560;17.852;2023-02-26T09:36:38;7.25;;;5.15;;
21727;SDS011;11026;50.560;17.852;2023-02-26T09:39:07;7.43;;;5.65;;
21727;SDS011;11026;50.560;17.852;2023-02-26T09:41:42;7.22;;;5.47;;
21727;SDS011;11026;50.560;17.852;2023-02-26T09:50:02;8.07;;;5.45;;
21727;SDS011;11026;50.560;17.852;2023-02-26T09:55:54;6.95;;;4.93;;
21727;SDS011;11026;50.560;17.852;2023-02-26T09:58:02;11.27;;;4.88;;
21727;SDS011;11026;50.560;17.852;2023-02-26T10:00:36;6.22;;;4.63;;
21727;SDS011;11026;50.560;17.852;2023-02-26T10:06:17;6.07;;;4.10;;
21727;SDS011;11026;50.560;17.852;2023-02-26T10:19:44;8.13;;;5.97;;
21727;SDS011;11026;50.560;17.852;2023-02-26T10:24:57;5.97;;;4.93;;
21727;SDS011;11026;50.560;17.852;2023-02-26T10:27:44;4.78;;;4.22;;
21727;SDS011;11026;50.560;17.852;2023-02-26T10:33:15;5.18;;;3.83;;
21727;SDS011;11026;50.560;17.852;2023-02-26T10:35:51;7.07;;;3.63;;
21727;SDS011;11026;50.560;17.852;2023-02-26T10:38:31;4.82;;;4.05;;
21727;SDS011;11026;50.560;17.852;2023-02-26T10:41:09;4.35;;;3.30;;
21727;SDS011;11026;50.560;17.852;2023-02-26T10:43:46;5.65;;;3.78;;
21727;SDS011;11026;50.560;17.852;2023-02-26T10:46:26;4.72;;;3.60;;
21727;SDS011;11026;50.560;17.852;2023-02-26T10:51:45;7.32;;;3.03;;
21727;SDS011;11026;50.560;17.852;2023-02-26T10:56:55;5.67;;;2.87;;
21727;SDS011;11026;50.560;17.852;2023-02-26T10:59:23;4.32;;;3.03;;
21727;SDS011;11026;50.560;17.852;2023-02-26T11:01:51;3.45;;;3.00;;
21727;SDS011;11026;50.560;17.852;2023-02-26T11:04:20;4.20;;;3.22;;
21727;SDS011;11026;50.560;17.852;2023-02-26T11:06:56;7.78;;;4.35;;
21727;SDS011;11026;50.560;17.852;2023-02-26T11:09:42;4.95;;;3.33;;
21727;SDS011;11026;50.560;17.852;2023-02-26T11:12:12;4.78;;;3.38;;
21727;SDS011;11026;50.560;17.852;2023-02-26T11:14:47;6.78;;;3.75;;
21727;SDS011;11026;50.560;17.852;2023-02-26T11:17:21;5.72;;;3.78;;
21727;SDS011;11026;50.560;17.852;2023-02-26T11:22:52;6.40;;;4.82;;
21727;SDS011;11026;50.560;17.852;2023-02-26T11:25:24;6.53;;;4.20;;
21727;SDS011;11026;50.560;17.852;2023-02-26T11:28:01;8.68;;;6.10;;
21727;SDS011;11026;50.560;17.852;2023-02-26T11:33:06;8.80;;;7.43;;
21727;SDS011;11026;50.560;17.852;2023-02-26T11:35:43;6.15;;;5.20;;
21727;SDS011;11026;50.560;17.852;2023-02-26T11:38:21;7.10;;;5.72;;
21727;SDS011;11026;50.560;17.852;2023-02-26T11:40:53;7.95;;;7.03;;
21727;SDS011;11026;50.560;17.852;2023-02-26T11:43:23;7.68;;;5.68;;
21727;SDS011;11026;50.560;17.852;2023-02-26T11:45:56;5.93;;;4.95;;
21727;SDS011;11026;50.560;17.852;2023-02-26T11:48:27;6.35;;;3.92;;
21727;SDS011;11026;50.560;17.852;2023-02-26T11:51:21;6.45;;;3.70;;
21727;SDS011;11026;50.560;17.852;2023-02-26T11:53:53;5.18;;;3.75;;
21727;SDS011;11026;50.560;17.852;2023-02-26T11:56:30;3.78;;;3.00;;
21727;SDS011;11026;50.560;17.852;2023-02-26T11:59:21;5.38;;;3.25;;
21727;SDS011;11026;50.560;17.852;2023-02-26T12:01:53;5.65;;;3.70;;
21727;SDS011;11026;50.560;17.852;2023-02-26T12:04:21;6.60;;;4.10;;
21727;SDS011;11026;50.560;17.852;2023-02-26T12:06:53;5.72;;;3.50;;
21727;SDS011;11026;50.560;17.852;2023-02-26T12:09:23;6.78;;;3.75;;
21727;SDS011;11026;50.560;17.852;2023-02-26T12:12:05;5.30;;;3.88;;
21727;SDS011;11026;50.560;17.852;2023-02-26T12:20:19;4.80;;;3.70;;
21727;SDS011;11026;50.560;17.852;2023-02-26T12:35:03;5.18;;;3.17;;
21727;SDS011;11026;50.560;17.852;2023-02-26T12:43:03;6.20;;;5.20;;
21727;SDS011;11026;50.560;17.852;2023-02-26T12:51:06;6.65;;;4.60;;
21727;SDS011;11026;50.560;17.852;2023-02-26T12:54:00;6.78;;;4.40;;
21727;SDS011;11026;50.560;17.852;2023-02-26T12:59:27;4.55;;;3.63;;
21727;SDS011;11026;50.560;17.852;2023-02-26T13:02:06;5.82;;;4.10;;
21727;SDS011;11026;50.560;17.852;2023-02-26T13:04:53;6.75;;;4.55;;
21727;SDS011;11026;50.560;17.852;2023-02-26T13:16:47;7.00;;;4.88;;
21727;SDS011;11026;50.560;17.852;2023-02-26T13:19:29;7.85;;;5.40;;
21727;SDS011;11026;50.560;17.852;2023-02-26T13:22:27;9.20;;;6.20;;
21727;SDS011;11026;50.560;17.852;2023-02-26T13:28:00;12.65;;;6.72;;
21727;SDS011;11026;50.560;17.852;2023-02-26T13:30:38;9.60;;;6.10;;
21727;SDS011;11026;50.560;17.852;2023-02-26T13:33:14;11.48;;;6.97;;
21727;SDS011;11026;50.560;17.852;2023-02-26T13:35:47;11.07;;;7.40;;
21727;SDS011;11026;50.560;17.852;2023-02-26T13:38:21;11.00;;;6.90;;
21727;SDS011;11026;50.560;17.852;2023-02-26T13:44:12;10.10;;;6.50;;
21727;SDS011;11026;50.560;17.852;2023-02-26T13:52:26;12.88;;;6.13;;
21727;SDS011;11026;50.560;17.852;2023-02-26T13:55:01;11.43;;;5.78;;
21727;SDS011;11026;50.560;17.852;2023-02-26T13:57:35;11.70;;;7.00;;
21727;SDS011;11026;50.560;17.852;2023-02-26T14:00:37;9.30;;;6.00;;
21727;SDS011;11026;50.560;17.852;2023-02-26T14:16:43;8.07;;;4.88;;
21727;SDS011;11026;50.560;17.852;2023-02-26T14:19:18;7.85;;;5.43;;
21727;SDS011;11026;50.560;17.852;2023-02-26T14:21:55;7.18;;;4.72;;
21727;SDS011;11026;50.560;17.852;2023-02-26T14:24:38;6.90;;;5.13;;
21727;SDS011;11026;50.560;17.852;2023-02-26T14:29:42;7.60;;;5.55;;
21727;SDS011;11026;50.560;17.852;2023-02-26T14:32:34;9.52;;;5.82;;
21727;SDS011;11026;50.560;17.852;2023-02-26T14:35:09;7.50;;;5.43;;
21727;SDS011;11026;50.560;17.852;2023-02-26T14:37:39;11.98;;;6.07;;
21727;SDS011;11026;50.560;17.852;2023-02-26T14:40:12;10.95;;;6.20;;
21727;SDS011;11026;50.560;17.852;2023-02-26T14:43:02;7.95;;;5.45;;
21727;SDS011;11026;50.560;17.852;2023-02-26T14:45:38;9.73;;;6.03;;
21727;SDS011;11026;50.560;17.852;2023-02-26T14:48:13;8.77;;;6.28;;
21727;SDS011;11026;50.560;17.852;2023-02-26T14:53:22;10.13;;;5.97;;
21727;SDS011;11026;50.560;17.852;2023-02-26T15:01:48;10.30;;;6.15;;
21727;SDS011;11026;50.560;17.852;2023-02-26T15:04:55;9.60;;;5.90;;
21727;SDS011;11026;50.560;17.852;2023-02-26T15:15:53;11.38;;;6.50;;
21727;SDS011;11026;50.560;17.852;2023-02-26T15:24:28;10.75;;;6.70;;
21727;SDS011;11026;50.560;17.852;2023-02-26T15:27:00;9.25;;;6.70;;
21727;SDS011;11026;50.560;17.852;2023-02-26T15:29:34;11.15;;;7.85;;
21727;SDS011;11026;50.560;17.852;2023-02-26T15:32:07;14.02;;;8.48;;
21727;SDS011;11026;50.560;17.852;2023-02-26T15:34:46;10.68;;;8.20;;
21727;SDS011;11026;50.560;17.852;2023-02-26T15:37:23;15.27;;;8.60;;
21727;SDS011;11026;50.560;17.852;2023-02-26T15:39:57;11.35;;;7.95;;
21727;SDS011;11026;50.560;17.852;2023-02-26T15:42:28;12.25;;;8.75;;
21727;SDS011;11026;50.560;17.852;2023-02-26T15:45:00;11.82;;;7.70;;
21727;SDS011;11026;50.560;17.852;2023-02-26T15:47:29;10.93;;;7.93;;
21727;SDS011;11026;50.560;17.852;2023-02-26T15:50:00;15.85;;;8.82;;
21727;SDS011;11026;50.560;17.852;2023-02-26T15:52:28;12.80;;;8.55;;
21727;SDS011;11026;50.560;17.852;2023-02-26T15:54:59;15.95;;;9.38;;
21727;SDS011;11026;50.560;17.852;2023-02-26T15:57:31;21.45;;;13.70;;
21727;SDS011;11026;50.560;17.852;2023-02-26T16:00:09;22.83;;;14.73;;
21727;SDS011;11026;50.560;17.852;2023-02-26T16:02:43;16.90;;;12.45;;
21727;SDS011;11026;50.560;17.852;2023-02-26T16:05:12;20.77;;;13.98;;
21727;SDS011;11026;50.560;17.852;2023-02-26T16:07:44;18.42;;;12.90;;
21727;SDS011;11026;50.560;17.852;2023-02-26T16:10:27;20.08;;;12.80;;
21727;SDS011;11026;50.560;17.852;2023-02-26T16:13:04;20.08;;;14.00;;
21727;SDS011;11026;50.560;17.852;2023-02-26T16:15:37;31.13;;;20.85;;
21727;SDS011;11026;50.560;17.852;2023-02-26T16:18:07;36.63;;;23.13;;
21727;SDS011;11026;50.560;17.852;2023-02-26T16:20:43;28.70;;;18.27;;
21727;SDS011;11026;50.560;17.852;2023-02-26T16:23:16;27.33;;;16.20;;
21727;SDS011;11026;50.560;17.852;2023-02-26T16:25:50;35.33;;;19.77;;
21727;SDS011;11026;50.560;17.852;2023-02-26T16:28:37;43.95;;;25.65;;
21727;SDS011;11026;50.560;17.852;2023-02-26T16:31:14;49.03;;;25.10;;
21727;SDS011;11026;50.560;17.852;2023-02-26T16:33:56;44.47;;;20.45;;
21727;SDS011;11026;50.560;17.852;2023-02-26T16:36:43;31.02;;;15.95;;
21727;SDS011;11026;50.560;17.852;2023-02-26T16:39:19;28.02;;;13.95;;
21727;SDS011;11026;50.560;17.852;2023-02-26T16:42:02;21.40;;;11.18;;
21727;SDS011;11026;50.560;17.852;2023-02-26T16:44:39;22.02;;;12.00;;
21727;SDS011;11026;50.560;17.852;2023-02-26T16:47:14;24.85;;;13.48;;
21727;SDS011;11026;50.560;17.852;2023-02-26T16:49:44;27.73;;;14.30;;
21727;SDS011;11026;50.560;17.852;2023-02-26T16:52:18;28.73;;;16.15;;
21727;SDS011;11026;50.560;17.852;2023-02-26T16:54:53;30.90;;;16.90;;
21727;SDS011;11026;50.560;17.852;2023-02-26T16:57:31;31.20;;;18.13;;
21727;SDS011;11026;50.560;17.852;2023-02-26T17:03:04;35.65;;;21.60;;
21727;SDS011;11026;50.560;17.852;2023-02-26T17:05:56;52.97;;;26.15;;
21727;SDS011;11026;50.560;17.852;2023-02-26T17:08:33;45.88;;;24.70;;
21727;SDS011;11026;50.560;17.852;2023-02-26T17:11:51;36.58;;;20.55;;
21727;SDS011;11026;50.560;17.852;2023-02-26T17:16:53;26.75;;;17.20;;
21727;SDS011;11026;50.560;17.852;2023-02-26T17:19:21;33.45;;;18.60;;
21727;SDS011;11026;50.560;17.852;2023-02-26T17:21:51;28.52;;;17.73;;
21727;SDS011;11026;50.560;17.852;2023-02-26T17:27:03;30.58;;;18.75;;
21727;SDS011;11026;50.560;17.852;2023-02-26T17:29:38;28.75;;;18.02;;
21727;SDS011;11026;50.560;17.852;2023-02-26T17:32:22;45.38;;;24.60;;
21727;SDS011;11026;50.560;17.852;2023-02-26T17:34:53;40.83;;;23.10;;
21727;SDS011;11026;50.560;17.852;2023-02-26T17:37:23;34.95;;;20.77;;
21727;SDS011;11026;50.560;17.852;2023-02-26T17:39:56;30.83;;;21.88;;
21727;SDS011;11026;50.560;17.852;2023-02-26T17:42:28;37.03;;;25.67;;
21727;SDS011;11026;50.560;17.852;2023-02-26T17:44:59;35.88;;;24.25;;
21727;SDS011;11026;50.560;17.852;2023-02-26T17:47:28;36.75;;;26.13;;
21727;SDS011;11026;50.560;17.852;2023-02-26T17:49:57;33.15;;;20.83;;
21727;SDS011;11026;50.560;17.852;2023-02-26T17:52:28;32.88;;;22.33;;
21727;SDS011;11026;50.560;17.852;2023-02-26T17:54:58;51.90;;;33.35;;
21727;SDS011;11026;50.560;17.852;2023-02-26T17:57:28;59.58;;;40.72;;
21727;SDS011;11026;50.560;17.852;2023-02-26T17:59:57;56.55;;;34.15;;
21727;SDS011;11026;50.560;17.852;2023-02-26T18:02:26;68.57;;;41.78;;
21727;SDS011;11026;50.560;17.852;2023-02-26T18:04:56;69.70;;;42.28;;
21727;SDS011;11026;50.560;17.852;2023-02-26T18:07:25;47.28;;;31.52;;
21727;SDS011;11026;50.560;17.852;2023-02-26T18:09:54;56.42;;;34.53;;
21727;SDS011;11026;50.560;17.852;2023-02-26T18:12:23;53.50;;;32.17;;
21727;SDS011;11026;50.560;17.852;2023-02-26T18:14:51;38.47;;;24.67;;
21727;SDS011;11026;50.560;17.852;2023-02-26T18:17:26;33.03;;;20.35;;